sensor_id;sensor_type;location;lat;lon;timestamp;pressure;altitude;pressure_sealevel;temperature;humidity
32452;BME280;45528;52.102;5.242;2022-08-01T00:00:22;101300.0;;;25.59;61.84
32452;BME280;45528;52.102;5.242;2022-08-01T00:02:09;101302.0;;;25.62;61.71
32452;BME280;45528;52.102;5.242;2022-08-01T00:05:45;101302.0;;;25.6;61.85
32452;BME280;45528;52.102;5.242;2022-08-01T00:07:31;101299.0;;;25.67;61.7
32452;BME280;45528;52.102;5.242;2022-08-01T00:09:17;101303.0;;;25.76;61.05
32452;BME280;45528;52.102;5.242;2022-08-01T00:11:04;101295.0;;;25.73;61.14
32452;BME280;45528;52.102;5.242;2022-08-01T00:12:51;101301.0;;;25.72;61.46
32452;BME280;45528;52.102;5.242;2022-08-01T00:14:37;101297.0;;;25.68;61.56
32452;BME280;45528;52.102;5.242;2022-08-01T00:18:11;101297.0;;;25.62;61.9
32452;BME280;45528;52.102;5.242;2022-08-01T00:19:57;101293.0;;;25.7;61.5
32452;BME280;45528;52.102;5.242;2022-08-01T00:21:44;101294.0;;;25.63;61.59
32452;BME280;45528;52.102;5.242;2022-08-01T00:23:31;101298.0;;;25.6;61.76
32452;BME280;45528;52.102;5.242;2022-08-01T00:25:18;101303.0;;;25.62;61.81
32452;BME280;45528;52.102;5.242;2022-08-01T00:28:51;101306.0;;;25.64;61.76
32452;BME280;45528;52.102;5.242;2022-08-01T00:30:37;101309.0;;;25.69;61.64
32452;BME280;45528;52.102;5.242;2022-08-01T00:32:23;101308.0;;;25.66;61.92
32452;BME280;45528;52.102;5.242;2022-08-01T00:34:10;101308.0;;;25.65;61.99
32452;BME280;45528;52.102;5.242;2022-08-01T00:35:57;101306.0;;;25.6;62.27
32452;BME280;45528;52.102;5.242;2022-08-01T00:37:44;101299.0;;;25.67;61.87
32452;BME280;45528;52.102;5.242;2022-08-01T00:41:19;101303.0;;;25.64;61.97
32452;BME280;45528;52.102;5.242;2022-08-01T00:43:05;101301.0;;;25.6;61.83
32452;BME280;45528;52.102;5.242;2022-08-01T00:44:51;101299.0;;;25.58;62.0
32452;BME280;45528;52.102;5.242;2022-08-01T00:46:37;101300.0;;;25.62;62.22
32452;BME280;45528;52.102;5.242;2022-08-01T00:48:23;101301.0;;;25.65;62.18
32452;BME280;45528;52.102;5.242;2022-08-01T00:51:58;101306.0;;;25.56;62.34
32452;BME280;45528;52.102;5.242;2022-08-01T00:53:45;101305.0;;;25.59;61.93
32452;BME280;45528;52.102;5.242;2022-08-01T00:55:31;101305.0;;;25.56;62.23
32452;BME280;45528;52.102;5.242;2022-08-01T00:57:18;101309.0;;;25.6;62.18
32452;BME280;45528;52.102;5.242;2022-08-01T00:59:05;101311.0;;;25.53;62.45
32452;BME280;45528;52.102;5.242;2022-08-01T01:00:53;101312.0;;;25.53;62.29
32452;BME280;45528;52.102;5.242;2022-08-01T01:04:26;101315.0;;;25.71;62.0
32452;BME280;45528;52.102;5.242;2022-08-01T01:06:22;101314.0;;;25.66;61.91
32452;BME280;45528;52.102;5.242;2022-08-01T01:08:16;101311.0;;;25.65;62.04
32452;BME280;45528;52.102;5.242;2022-08-01T01:10:10;101312.0;;;25.61;62.29
32452;BME280;45528;52.102;5.242;2022-08-01T01:12:09;101314.0;;;25.52;62.5
32452;BME280;45528;52.102;5.242;2022-08-01T01:14:02;101306.0;;;25.55;62.05
32452;BME280;45528;52.102;5.242;2022-08-01T01:15:58;101306.0;;;25.61;62.23
32452;BME280;45528;52.102;5.242;2022-08-01T01:17:48;101307.0;;;25.59;61.95
32452;BME280;45528;52.102;5.242;2022-08-01T01:19:45;101311.0;;;25.66;62.11
32452;BME280;45528;52.102;5.242;2022-08-01T01:21:42;101305.0;;;25.62;62.08
32452;BME280;45528;52.102;5.242;2022-08-01T01:25:44;101302.0;;;25.57;62.55
32452;BME280;45528;52.102;5.242;2022-08-01T01:27:45;101302.0;;;25.54;62.63
32452;BME280;45528;52.102;5.242;2022-08-01T01:29:41;101299.0;;;25.52;62.73
32452;BME280;45528;52.102;5.242;2022-08-01T01:31:31;101298.0;;;25.52;62.68
32452;BME280;45528;52.102;5.242;2022-08-01T01:33:21;101296.0;;;25.52;62.71
32452;BME280;45528;52.102;5.242;2022-08-01T01:35:14;101293.0;;;25.69;62.2
32452;BME280;45528;52.102;5.242;2022-08-01T01:37:12;101299.0;;;25.59;62.33
32452;BME280;45528;52.102;5.242;2022-08-01T01:39:05;101299.0;;;25.74;61.9
32452;BME280;45528;52.102;5.242;2022-08-01T01:40:54;101307.0;;;25.69;61.88
32452;BME280;45528;52.102;5.242;2022-08-01T01:42:42;101303.0;;;25.66;62.08
32452;BME280;45528;52.102;5.242;2022-08-01T01:46:22;101296.0;;;25.69;62.08
32452;BME280;45528;52.102;5.242;2022-08-01T01:48:10;101299.0;;;25.62;62.22
32452;BME280;45528;52.102;5.242;2022-08-01T01:50:02;101301.0;;;25.64;62.09
32452;BME280;45528;52.102;5.242;2022-08-01T01:51:51;101305.0;;;25.61;62.41
32452;BME280;45528;52.102;5.242;2022-08-01T01:53:39;101309.0;;;25.59;62.4
32452;BME280;45528;52.102;5.242;2022-08-01T01:55:28;101305.0;;;25.56;62.6
32452;BME280;45528;52.102;5.242;2022-08-01T01:57:16;101305.0;;;25.64;62.41
32452;BME280;45528;52.102;5.242;2022-08-01T02:00:52;101310.0;;;25.63;62.32
32452;BME280;45528;52.102;5.242;2022-08-01T02:02:41;101310.0;;;25.65;62.32
32452;BME280;45528;52.102;5.242;2022-08-01T02:04:30;101308.0;;;25.68;62.03
32452;BME280;45528;52.102;5.242;2022-08-01T02:06:18;101311.0;;;25.65;62.1
32452;BME280;45528;52.102;5.242;2022-08-01T02:08:06;101305.0;;;25.71;62.25
32452;BME280;45528;52.102;5.242;2022-08-01T02:09:53;101309.0;;;25.62;62.53
32452;BME280;45528;52.102;5.242;2022-08-01T02:13:30;101308.0;;;25.57;62.75
32452;BME280;45528;52.102;5.242;2022-08-01T02:15:18;101309.0;;;25.54;62.76
32452;BME280;45528;52.102;5.242;2022-08-01T02:17:06;101306.0;;;25.47;63.27
32452;BME280;45528;52.102;5.242;2022-08-01T02:18:57;101307.0;;;25.49;63.36
32452;BME280;45528;52.102;5.242;2022-08-01T02:20:45;101310.0;;;25.48;63.52
32452;BME280;45528;52.102;5.242;2022-08-01T02:22:34;101307.0;;;25.45;63.5
32452;BME280;45528;52.102;5.242;2022-08-01T02:24:32;101308.0;;;25.45;63.5
32452;BME280;45528;52.102;5.242;2022-08-01T02:26:24;101307.0;;;25.45;62.88
32452;BME280;45528;52.102;5.242;2022-08-01T02:30:07;101310.0;;;25.41;63.7
32452;BME280;45528;52.102;5.242;2022-08-01T02:31:55;101310.0;;;25.38;63.71
32452;BME280;45528;52.102;5.242;2022-08-01T02:33:45;101301.0;;;25.35;63.85
32452;BME280;45528;52.102;5.242;2022-08-01T02:35:38;101303.0;;;25.33;63.81
32452;BME280;45528;52.102;5.242;2022-08-01T02:37:28;101310.0;;;25.37;63.7
32452;BME280;45528;52.102;5.242;2022-08-01T02:39:19;101309.0;;;25.34;63.95
32452;BME280;45528;52.102;5.242;2022-08-01T02:41:10;101315.0;;;25.3;64.12
32452;BME280;45528;52.102;5.242;2022-08-01T02:44:49;101318.0;;;25.3;64.03
32452;BME280;45528;52.102;5.242;2022-08-01T02:46:41;101310.0;;;25.34;63.85
32452;BME280;45528;52.102;5.242;2022-08-01T02:48:30;101320.0;;;25.31;63.95
32452;BME280;45528;52.102;5.242;2022-08-01T02:50:20;101316.0;;;25.29;64.02
32452;BME280;45528;52.102;5.242;2022-08-01T02:52:13;101312.0;;;25.26;64.19
32452;BME280;45528;52.102;5.242;2022-08-01T02:54:02;101307.0;;;25.23;64.22
32452;BME280;45528;52.102;5.242;2022-08-01T02:55:52;101309.0;;;25.18;64.44
32452;BME280;45528;52.102;5.242;2022-08-01T02:59:30;101311.0;;;25.14;64.59
32452;BME280;45528;52.102;5.242;2022-08-01T03:01:20;101309.0;;;25.19;64.36
32452;BME280;45528;52.102;5.242;2022-08-01T03:03:09;101303.0;;;25.18;64.44
32452;BME280;45528;52.102;5.242;2022-08-01T03:04:58;101298.0;;;25.21;64.5
32452;BME280;45528;52.102;5.242;2022-08-01T03:06:47;101295.0;;;25.2;64.39
32452;BME280;45528;52.102;5.242;2022-08-01T03:08:34;101298.0;;;25.19;64.35
32452;BME280;45528;52.102;5.242;2022-08-01T03:10:24;101296.0;;;25.16;64.38
32452;BME280;45528;52.102;5.242;2022-08-01T03:14:13;101296.0;;;25.15;64.47
32452;BME280;45528;52.102;5.242;2022-08-01T03:16:02;101297.0;;;25.15;64.31
32452;BME280;45528;52.102;5.242;2022-08-01T03:17:52;101305.0;;;25.11;64.53
32452;BME280;45528;52.102;5.242;2022-08-01T03:19:41;101311.0;;;25.09;64.63
32452;BME280;45528;52.102;5.242;2022-08-01T03:21:31;101312.0;;;25.07;64.59
32452;BME280;45528;52.102;5.242;2022-08-01T03:23:21;101313.0;;;25.06;64.58
32452;BME280;45528;52.102;5.242;2022-08-01T03:25:09;101316.0;;;25.08;64.58
32452;BME280;45528;52.102;5.242;2022-08-01T03:28:46;101317.0;;;25.09;64.44
32452;BME280;45528;52.102;5.242;2022-08-01T03:30:35;101318.0;;;25.08;64.42
32452;BME280;45528;52.102;5.242;2022-08-01T03:32:23;101318.0;;;25.1;64.34
32452;BME280;45528;52.102;5.242;2022-08-01T03:34:11;101318.0;;;25.1;64.55
32452;BME280;45528;52.102;5.242;2022-08-01T03:35:59;101317.0;;;25.09;64.58
32452;BME280;45528;52.102;5.242;2022-08-01T03:37:52;101322.0;;;25.1;64.44
32452;BME280;45528;52.102;5.242;2022-08-01T03:39:44;101322.0;;;25.13;64.2
32452;BME280;45528;52.102;5.242;2022-08-01T03:43:30;101326.0;;;25.15;64.03
32452;BME280;45528;52.102;5.242;2022-08-01T03:45:26;101331.0;;;25.13;64.22
32452;BME280;45528;52.102;5.242;2022-08-01T03:47:15;101325.0;;;25.12;64.02
32452;BME280;45528;52.102;5.242;2022-08-01T03:49:15;101324.0;;;25.14;64.22
32452;BME280;45528;52.102;5.242;2022-08-01T03:51:08;101321.0;;;25.15;64.22
32452;BME280;45528;52.102;5.242;2022-08-01T03:52:59;101319.0;;;25.09;64.27
32452;BME280;45528;52.102;5.242;2022-08-01T03:54:48;101319.0;;;25.09;64.08
32452;BME280;45528;52.102;5.242;2022-08-01T03:56:39;101321.0;;;25.07;64.25
32452;BME280;45528;52.102;5.242;2022-08-01T04:00:18;101322.0;;;25.06;63.42
32452;BME280;45528;52.102;5.242;2022-08-01T04:02:06;101323.0;;;25.02;64.02
32452;BME280;45528;52.102;5.242;2022-08-01T04:03:53;101321.0;;;24.96;64.11
32452;BME280;45528;52.102;5.242;2022-08-01T04:05:40;101326.0;;;24.95;64.23
32452;BME280;45528;52.102;5.242;2022-08-01T04:07:29;101326.0;;;25.01;64.03
32452;BME280;45528;52.102;5.242;2022-08-01T04:09:16;101328.0;;;24.94;64.24
32452;BME280;45528;52.102;5.242;2022-08-01T04:11:03;101324.0;;;24.94;63.98
32452;BME280;45528;52.102;5.242;2022-08-01T04:14:38;101321.0;;;24.91;64.27
32452;BME280;45528;52.102;5.242;2022-08-01T04:16:24;101324.0;;;24.84;64.3
32452;BME280;45528;52.102;5.242;2022-08-01T04:18:11;101326.0;;;24.83;64.41
32452;BME280;45528;52.102;5.242;2022-08-01T04:19:57;101328.0;;;24.89;64.24
32452;BME280;45528;52.102;5.242;2022-08-01T04:21:44;101333.0;;;24.91;64.19
32452;BME280;45528;52.102;5.242;2022-08-01T04:25:24;101336.0;;;24.87;63.25
32452;BME280;45528;52.102;5.242;2022-08-01T04:27:14;101338.0;;;24.9;64.06
32452;BME280;45528;52.102;5.242;2022-08-01T04:29:10;101340.0;;;24.88;64.08
32452;BME280;45528;52.102;5.242;2022-08-01T04:30:59;101338.0;;;24.89;64.08
32452;BME280;45528;52.102;5.242;2022-08-01T04:32:47;101338.0;;;24.9;64.36
32452;BME280;45528;52.102;5.242;2022-08-01T04:34:38;101339.0;;;24.94;64.17
32452;BME280;45528;52.102;5.242;2022-08-01T04:36:27;101346.0;;;24.98;64.11
32452;BME280;45528;52.102;5.242;2022-08-01T04:38:21;101347.0;;;24.97;64.16
32452;BME280;45528;52.102;5.242;2022-08-01T04:41:58;101347.0;;;24.98;64.16
32452;BME280;45528;52.102;5.242;2022-08-01T04:43:46;101352.0;;;25.05;64.11
32452;BME280;45528;52.102;5.242;2022-08-01T04:45:34;101348.0;;;25.0;64.2
32452;BME280;45528;52.102;5.242;2022-08-01T04:47:22;101349.0;;;25.01;64.28
32452;BME280;45528;52.102;5.242;2022-08-01T04:49:10;101351.0;;;24.91;64.08
32452;BME280;45528;52.102;5.242;2022-08-01T04:50:56;101353.0;;;24.95;64.2
32452;BME280;45528;52.102;5.242;2022-08-01T04:54:30;101359.0;;;25.0;63.43
32452;BME280;45528;52.102;5.242;2022-08-01T04:56:19;101366.0;;;24.99;64.37
32452;BME280;45528;52.102;5.242;2022-08-01T04:58:07;101370.0;;;25.08;64.19
32452;BME280;45528;52.102;5.242;2022-08-01T04:59:56;101367.0;;;25.1;64.19
32452;BME280;45528;52.102;5.242;2022-08-01T05:01:48;101370.0;;;25.07;64.09
32452;BME280;45528;52.102;5.242;2022-08-01T05:03:35;101371.0;;;25.0;63.25
32452;BME280;45528;52.102;5.242;2022-08-01T05:07:08;101371.0;;;25.0;63.74
32452;BME280;45528;52.102;5.242;2022-08-01T05:08:56;101372.0;;;24.99;64.22
32452;BME280;45528;52.102;5.242;2022-08-01T05:10:42;101373.0;;;24.98;64.19
32452;BME280;45528;52.102;5.242;2022-08-01T05:12:29;101373.0;;;24.99;63.65
32452;BME280;45528;52.102;5.242;2022-08-01T05:14:15;101373.0;;;25.0;63.95
32452;BME280;45528;52.102;5.242;2022-08-01T05:16:03;101374.0;;;25.01;63.88
32452;BME280;45528;52.102;5.242;2022-08-01T05:19:38;101378.0;;;25.03;64.17
32452;BME280;45528;52.102;5.242;2022-08-01T05:21:25;101374.0;;;25.03;63.76
32452;BME280;45528;52.102;5.242;2022-08-01T05:23:12;101380.0;;;25.1;63.45
32452;BME280;45528;52.102;5.242;2022-08-01T05:24:59;101382.0;;;24.94;63.47
32452;BME280;45528;52.102;5.242;2022-08-01T05:26:45;101387.0;;;24.88;63.03
32452;BME280;45528;52.102;5.242;2022-08-01T05:28:31;101382.0;;;24.83;63.46
32452;BME280;45528;52.102;5.242;2022-08-01T05:32:04;101384.0;;;24.8;63.25
32452;BME280;45528;52.102;5.242;2022-08-01T05:33:51;101387.0;;;24.81;63.32
32452;BME280;45528;52.102;5.242;2022-08-01T05:35:37;101383.0;;;24.72;62.95
32452;BME280;45528;52.102;5.242;2022-08-01T05:37:24;101387.0;;;24.77;63.21
32452;BME280;45528;52.102;5.242;2022-08-01T05:39:10;101388.0;;;24.73;63.83
32452;BME280;45528;52.102;5.242;2022-08-01T05:42:43;101393.0;;;24.68;64.02
32452;BME280;45528;52.102;5.242;2022-08-01T05:44:30;101388.0;;;24.66;64.05
32452;BME280;45528;52.102;5.242;2022-08-01T05:46:17;101385.0;;;24.67;64.09
32452;BME280;45528;52.102;5.242;2022-08-01T05:48:04;101388.0;;;24.72;63.63
32452;BME280;45528;52.102;5.242;2022-08-01T05:49:50;101394.0;;;24.59;63.5
32452;BME280;45528;52.102;5.242;2022-08-01T05:51:36;101393.0;;;24.45;64.58
32452;BME280;45528;52.102;5.242;2022-08-01T05:55:09;101389.0;;;24.4;64.69
32452;BME280;45528;52.102;5.242;2022-08-01T05:56:59;101393.0;;;24.38;64.88
32452;BME280;45528;52.102;5.242;2022-08-01T05:58:46;101395.0;;;24.46;64.75
32452;BME280;45528;52.102;5.242;2022-08-01T06:00:33;101398.0;;;24.48;64.98
32452;BME280;45528;52.102;5.242;2022-08-01T06:02:20;101403.0;;;24.45;65.08
32452;BME280;45528;52.102;5.242;2022-08-01T06:04:06;101405.0;;;24.5;65.03
32452;BME280;45528;52.102;5.242;2022-08-01T06:07:40;101401.0;;;24.45;65.44
32452;BME280;45528;52.102;5.242;2022-08-01T06:09:26;101403.0;;;24.45;65.34
32452;BME280;45528;52.102;5.242;2022-08-01T06:11:12;101405.0;;;24.38;65.19
32452;BME280;45528;52.102;5.242;2022-08-01T06:13:03;101402.0;;;24.34;65.41
32452;BME280;45528;52.102;5.242;2022-08-01T06:14:49;101405.0;;;24.33;65.44
32452;BME280;45528;52.102;5.242;2022-08-01T06:16:35;101410.0;;;24.34;65.69
32452;BME280;45528;52.102;5.242;2022-08-01T06:20:09;101410.0;;;24.32;65.53
32452;BME280;45528;52.102;5.242;2022-08-01T06:21:56;101412.0;;;24.34;65.39
32452;BME280;45528;52.102;5.242;2022-08-01T06:23:42;101411.0;;;24.37;65.45
32452;BME280;45528;52.102;5.242;2022-08-01T06:25:29;101414.0;;;24.33;65.72
32452;BME280;45528;52.102;5.242;2022-08-01T06:27:16;101405.0;;;24.31;65.59
32452;BME280;45528;52.102;5.242;2022-08-01T06:30:49;101407.0;;;24.29;65.81
32452;BME280;45528;52.102;5.242;2022-08-01T06:32:36;101407.0;;;24.28;65.69
32452;BME280;45528;52.102;5.242;2022-08-01T06:34:23;101406.0;;;24.28;65.88
32452;BME280;45528;52.102;5.242;2022-08-01T06:36:09;101405.0;;;24.29;65.88
32452;BME280;45528;52.102;5.242;2022-08-01T06:37:56;101410.0;;;24.32;66.0
32452;BME280;45528;52.102;5.242;2022-08-01T06:39:43;101412.0;;;24.31;65.75
32452;BME280;45528;52.102;5.242;2022-08-01T06:43:15;101408.0;;;24.37;65.55
32452;BME280;45528;52.102;5.242;2022-08-01T06:45:02;101412.0;;;24.38;65.66
32452;BME280;45528;52.102;5.242;2022-08-01T06:46:49;101416.0;;;24.43;65.83
32452;BME280;45528;52.102;5.242;2022-08-01T06:48:39;101420.0;;;24.42;65.91
32452;BME280;45528;52.102;5.242;2022-08-01T06:50:25;101420.0;;;24.45;65.77
32452;BME280;45528;52.102;5.242;2022-08-01T06:52:12;101422.0;;;24.45;65.74
32452;BME280;45528;52.102;5.242;2022-08-01T06:55:44;101422.0;;;24.44;65.58
32452;BME280;45528;52.102;5.242;2022-08-01T06:57:30;101422.0;;;24.44;65.87
32452;BME280;45528;52.102;5.242;2022-08-01T06:59:17;101422.0;;;24.46;65.89
32452;BME280;45528;52.102;5.242;2022-08-01T07:01:06;101424.0;;;24.48;65.8
32452;BME280;45528;52.102;5.242;2022-08-01T07:02:54;101418.0;;;24.44;65.84
32452;BME280;45528;52.102;5.242;2022-08-01T07:04:42;101425.0;;;24.55;65.88
32452;BME280;45528;52.102;5.242;2022-08-01T07:08:15;101431.0;;;24.64;65.64
32452;BME280;45528;52.102;5.242;2022-08-01T07:10:04;101433.0;;;24.63;65.12
32452;BME280;45528;52.102;5.242;2022-08-01T07:11:52;101433.0;;;24.58;65.37
32452;BME280;45528;52.102;5.242;2022-08-01T07:13:40;101434.0;;;24.62;65.44
32452;BME280;45528;52.102;5.242;2022-08-01T07:15:26;101431.0;;;24.62;65.47
32452;BME280;45528;52.102;5.242;2022-08-01T07:19:00;101435.0;;;24.6;65.83
32452;BME280;45528;52.102;5.242;2022-08-01T07:20:46;101436.0;;;24.72;65.41
32452;BME280;45528;52.102;5.242;2022-08-01T07:22:32;101436.0;;;24.34;65.58
32452;BME280;45528;52.102;5.242;2022-08-01T07:24:19;101438.0;;;24.53;65.41
32452;BME280;45528;52.102;5.242;2022-08-01T07:26:06;101440.0;;;24.57;65.58
32452;BME280;45528;52.102;5.242;2022-08-01T07:27:53;101447.0;;;24.65;65.41
32452;BME280;45528;52.102;5.242;2022-08-01T07:31:25;101447.0;;;24.67;64.97
32452;BME280;45528;52.102;5.242;2022-08-01T07:33:12;101446.0;;;24.46;65.28
32452;BME280;45528;52.102;5.242;2022-08-01T07:34:58;101453.0;;;24.38;64.75
32452;BME280;45528;52.102;5.242;2022-08-01T07:36:45;101452.0;;;24.3;65.11
32452;BME280;45528;52.102;5.242;2022-08-01T07:38:32;101453.0;;;24.26;65.34
32452;BME280;45528;52.102;5.242;2022-08-01T07:40:19;101457.0;;;24.34;64.66
32452;BME280;45528;52.102;5.242;2022-08-01T07:43:53;101460.0;;;24.38;65.14
32452;BME280;45528;52.102;5.242;2022-08-01T07:45:40;101469.0;;;24.43;65.03
32452;BME280;45528;52.102;5.242;2022-08-01T07:47:27;101469.0;;;24.43;64.97
32452;BME280;45528;52.102;5.242;2022-08-01T07:49:13;101469.0;;;24.48;64.52
32452;BME280;45528;52.102;5.242;2022-08-01T07:51:00;101471.0;;;24.5;64.95
32452;BME280;45528;52.102;5.242;2022-08-01T07:54:33;101471.0;;;24.51;65.45
32452;BME280;45528;52.102;5.242;2022-08-01T07:56:20;101473.0;;;24.49;64.86
32452;BME280;45528;52.102;5.242;2022-08-01T07:58:06;101471.0;;;24.49;65.35
32452;BME280;45528;52.102;5.242;2022-08-01T07:59:53;101471.0;;;24.49;65.35
32452;BME280;45528;52.102;5.242;2022-08-01T08:01:41;101473.0;;;24.54;65.05
32452;BME280;45528;52.102;5.242;2022-08-01T08:03:28;101476.0;;;24.55;65.02
32452;BME280;45528;52.102;5.242;2022-08-01T08:07:01;101475.0;;;24.45;64.72
32452;BME280;45528;52.102;5.242;2022-08-01T08:08:48;101480.0;;;24.56;64.78
32452;BME280;45528;52.102;5.242;2022-08-01T08:10:34;101478.0;;;24.63;64.47
32452;BME280;45528;52.102;5.242;2022-08-01T08:12:20;101480.0;;;24.64;64.97
32452;BME280;45528;52.102;5.242;2022-08-01T08:14:07;101480.0;;;24.71;64.2
32452;BME280;45528;52.102;5.242;2022-08-01T08:15:53;101485.0;;;24.77;64.39
32452;BME280;45528;52.102;5.242;2022-08-01T08:19:26;101485.0;;;24.91;64.48
32452;BME280;45528;52.102;5.242;2022-08-01T08:21:12;101490.0;;;24.97;64.24
32452;BME280;45528;52.102;5.242;2022-08-01T08:22:58;101491.0;;;25.03;64.1
32452;BME280;45528;52.102;5.242;2022-08-01T08:24:45;101490.0;;;24.87;64.27
32452;BME280;45528;52.102;5.242;2022-08-01T08:26:32;101495.0;;;25.18;63.93
32452;BME280;45528;52.102;5.242;2022-08-01T08:30:08;101496.0;;;24.98;64.3
32452;BME280;45528;52.102;5.242;2022-08-01T08:31:55;101499.0;;;25.09;63.06
32452;BME280;45528;52.102;5.242;2022-08-01T08:33:42;101496.0;;;25.15;63.83
32452;BME280;45528;52.102;5.242;2022-08-01T08:35:28;101495.0;;;24.88;62.49
32452;BME280;45528;52.102;5.242;2022-08-01T08:37:17;101495.0;;;25.02;62.25
32452;BME280;45528;52.102;5.242;2022-08-01T08:39:04;101494.0;;;24.84;63.14
32452;BME280;45528;52.102;5.242;2022-08-01T08:42:39;101496.0;;;24.77;62.02
32452;BME280;45528;52.102;5.242;2022-08-01T08:44:26;101507.0;;;25.03;63.2
32452;BME280;45528;52.102;5.242;2022-08-01T08:46:13;101513.0;;;25.18;63.59
32452;BME280;45528;52.102;5.242;2022-08-01T08:48:00;101513.0;;;25.15;63.21
32452;BME280;45528;52.102;5.242;2022-08-01T08:49:49;101510.0;;;25.42;62.66
32452;BME280;45528;52.102;5.242;2022-08-01T08:51:39;101514.0;;;25.53;63.7
32452;BME280;45528;52.102;5.242;2022-08-01T08:55:16;101513.0;;;25.38;61.2
32452;BME280;45528;52.102;5.242;2022-08-01T08:57:04;101514.0;;;25.54;60.11
32452;BME280;45528;52.102;5.242;2022-08-01T08:58:51;101519.0;;;25.56;61.2
32452;BME280;45528;52.102;5.242;2022-08-01T09:00:38;101519.0;;;25.37;59.48
32452;BME280;45528;52.102;5.242;2022-08-01T09:02:25;101516.0;;;25.55;60.42
32452;BME280;45528;52.102;5.242;2022-08-01T09:04:12;101515.0;;;25.5;60.44
32452;BME280;45528;52.102;5.242;2022-08-01T09:07:46;101519.0;;;25.44;60.06
32452;BME280;45528;52.102;5.242;2022-08-01T09:09:33;101521.0;;;25.79;60.31
32452;BME280;45528;52.102;5.242;2022-08-01T09:11:19;101524.0;;;25.77;59.42
32452;BME280;45528;52.102;5.242;2022-08-01T09:13:10;101527.0;;;25.95;58.92
32452;BME280;45528;52.102;5.242;2022-08-01T09:14:56;101533.0;;;25.93;57.57
32452;BME280;45528;52.102;5.242;2022-08-01T09:16:44;101540.0;;;26.07;58.6
32452;BME280;45528;52.102;5.242;2022-08-01T09:20:23;101539.0;;;25.97;57.7
32452;BME280;45528;52.102;5.242;2022-08-01T09:22:11;101542.0;;;26.06;57.11
32452;BME280;45528;52.102;5.242;2022-08-01T09:24:03;101539.0;;;25.87;56.35
32452;BME280;45528;52.102;5.242;2022-08-01T09:25:51;101543.0;;;25.97;56.71
32452;BME280;45528;52.102;5.242;2022-08-01T09:27:39;101540.0;;;25.75;56.07
32452;BME280;45528;52.102;5.242;2022-08-01T09:29:28;101543.0;;;25.85;58.11
32452;BME280;45528;52.102;5.242;2022-08-01T09:31:18;101547.0;;;25.97;56.61
32452;BME280;45528;52.102;5.242;2022-08-01T09:34:51;101551.0;;;26.0;57.0
32452;BME280;45528;52.102;5.242;2022-08-01T09:36:47;101553.0;;;26.06;57.56
32452;BME280;45528;52.102;5.242;2022-08-01T09:38:41;101548.0;;;25.76;55.56
32452;BME280;45528;52.102;5.242;2022-08-01T09:40:44;101547.0;;;26.04;56.08
32452;BME280;45528;52.102;5.242;2022-08-01T09:42:30;101556.0;;;26.07;54.9
32452;BME280;45528;52.102;5.242;2022-08-01T09:44:18;101556.0;;;26.09;55.24
32452;BME280;45528;52.102;5.242;2022-08-01T09:46:05;101556.0;;;26.02;55.52
32452;BME280;45528;52.102;5.242;2022-08-01T09:47:55;101555.0;;;26.13;55.9
32452;BME280;45528;52.102;5.242;2022-08-01T09:51:32;101556.0;;;26.16;55.6
32452;BME280;45528;52.102;5.242;2022-08-01T09:53:20;101561.0;;;26.15;54.45
32452;BME280;45528;52.102;5.242;2022-08-01T09:55:08;101560.0;;;25.93;54.62
32452;BME280;45528;52.102;5.242;2022-08-01T09:57:07;101565.0;;;25.96;54.51
32452;BME280;45528;52.102;5.242;2022-08-01T09:58:56;101563.0;;;26.09;56.05
32452;BME280;45528;52.102;5.242;2022-08-01T10:00:43;101562.0;;;26.19;54.93
32452;BME280;45528;52.102;5.242;2022-08-01T10:02:45;101558.0;;;26.26;54.28
32452;BME280;45528;52.102;5.242;2022-08-01T10:06:20;101560.0;;;26.45;54.21
32452;BME280;45528;52.102;5.242;2022-08-01T10:08:07;101556.0;;;26.52;53.64
32452;BME280;45528;52.102;5.242;2022-08-01T10:09:53;101562.0;;;26.52;54.31
32452;BME280;45528;52.102;5.242;2022-08-01T10:11:41;101562.0;;;26.59;52.91
32452;BME280;45528;52.102;5.242;2022-08-01T10:13:30;101567.0;;;26.64;53.65
32452;BME280;45528;52.102;5.242;2022-08-01T10:15:17;101566.0;;;26.36;51.91
32452;BME280;45528;52.102;5.242;2022-08-01T10:18:54;101565.0;;;26.64;53.02
32452;BME280;45528;52.102;5.242;2022-08-01T10:20:43;101565.0;;;26.69;51.95
32452;BME280;45528;52.102;5.242;2022-08-01T10:22:31;101567.0;;;26.76;52.29
32452;BME280;45528;52.102;5.242;2022-08-01T10:24:19;101572.0;;;26.74;53.48
32452;BME280;45528;52.102;5.242;2022-08-01T10:26:07;101572.0;;;26.7;51.37
32452;BME280;45528;52.102;5.242;2022-08-01T10:27:56;101572.0;;;26.69;52.21
32452;BME280;45528;52.102;5.242;2022-08-01T10:29:49;101572.0;;;26.66;50.0
32452;BME280;45528;52.102;5.242;2022-08-01T10:33:26;101566.0;;;26.72;50.99
32452;BME280;45528;52.102;5.242;2022-08-01T10:35:18;101568.0;;;26.74;51.58
32452;BME280;45528;52.102;5.242;2022-08-01T10:37:05;101562.0;;;26.72;49.49
32452;BME280;45528;52.102;5.242;2022-08-01T10:38:54;101564.0;;;26.76;49.93
32452;BME280;45528;52.102;5.242;2022-08-01T10:40:41;101565.0;;;26.89;50.31
32452;BME280;45528;52.102;5.242;2022-08-01T10:42:29;101571.0;;;27.07;50.81
32452;BME280;45528;52.102;5.242;2022-08-01T10:46:05;101570.0;;;26.98;50.07
32452;BME280;45528;52.102;5.242;2022-08-01T10:47:56;101564.0;;;27.06;49.6
32452;BME280;45528;52.102;5.242;2022-08-01T10:49:48;101567.0;;;27.13;50.29
32452;BME280;45528;52.102;5.242;2022-08-01T10:51:40;101567.0;;;27.13;47.8
32452;BME280;45528;52.102;5.242;2022-08-01T10:53:27;101571.0;;;27.14;49.6
32452;BME280;45528;52.102;5.242;2022-08-01T10:55:14;101569.0;;;27.1;49.31
32452;BME280;45528;52.102;5.242;2022-08-01T10:57:00;101571.0;;;27.04;47.89
32452;BME280;45528;52.102;5.242;2022-08-01T11:00:34;101572.0;;;27.14;48.22
32452;BME280;45528;52.102;5.242;2022-08-01T11:02:27;101572.0;;;27.05;47.85
32452;BME280;45528;52.102;5.242;2022-08-01T11:04:14;101572.0;;;27.22;48.53
32452;BME280;45528;52.102;5.242;2022-08-01T11:06:03;101569.0;;;27.3;48.94